Time;durP1;ratioP1;P1;durP2;ratioP2;P2;SDS_P1;SDS_P2;PMS_P1;PMS_P2;Temp;Humidity;BMP_temperature;BMP_pressure;BME280_temperature;BME280_humidity;BME280_pressure;Samples;Min_cycle;Max_cycle;Signal;HPM_P1;HPM_P2
2022/03/24 00:01:55;;;;;;;52.83;25.13;;;282.00;819.20;;;;;;5093555;28;20584;-65
2022/03/24 00:04:21;;;;;;;51.72;27.65;;;281.90;819.20;;;;;;5075031;28;20081;-65
2022/03/24 00:06:46;;;;;;;59.75;30.65;;;281.80;819.20;;;;;;5093535;28;20027;-65
2022/03/24 00:09:12;;;;;;;66.38;32.50;;;281.80;819.20;;;;;;5093461;28;20035;-65
2022/03/24 00:11:40;;;;;;;55.88;27.25;;;281.80;819.20;;;;;;5093684;28;20024;-65
2022/03/24 00:14:06;;;;;;;50.97;25.50;;;281.80;819.20;;;;;;5093869;28;20355;-65
2022/03/24 00:16:32;;;;;;;52.38;26.02;;;281.70;819.20;;;;;;5093538;28;20035;-65
2022/03/24 00:18:59;;;;;;;58.67;29.17;;;281.70;819.20;;;;;;5093249;28;20028;-64
2022/03/24 00:21:25;;;;;;;62.25;32.88;;;281.70;819.20;;;;;;5093356;28;20024;-64
2022/03/24 00:23:51;;;;;;;69.57;35.85;;;281.70;819.20;;;;;;5093603;28;20024;-63
2022/03/24 00:26:17;;;;;;;62.58;34.95;;;281.60;819.20;;;;;;5093469;28;20420;-63
2022/03/24 00:28:44;;;;;;;54.80;28.23;;;281.60;819.20;;;;;;5096592;28;20051;-63
2022/03/24 00:31:09;;;;;;;49.97;26.55;;;256.90;793.60;;;;;;5097086;28;20067;-63
2022/03/24 00:33:38;;;;;;;59.83;26.52;;;256.90;793.60;;;;;;5097076;28;20466;-63
2022/03/24 00:36:04;;;;;;;51.42;26.85;;;256.90;793.60;;;;;;5096972;28;20036;-62
2022/03/24 00:38:31;;;;;;;52.15;25.20;;;256.80;793.60;;;;;;5097018;28;20098;-62
2022/03/24 00:40:57;;;;;;;46.65;24.48;;;256.80;819.20;;;;;;5096912;28;20130;-61
2022/03/24 00:43:23;;;;;;;47.55;24.58;;;256.80;793.60;;;;;;5097066;28;20016;-62
2022/03/24 00:45:52;;;;;;;48.30;25.13;;;256.80;819.20;;;;;;5096916;28;20125;-63
2022/03/24 00:48:18;;;;;;;52.65;29.05;;;256.70;819.20;;;;;;5096747;28;20028;-63
2022/03/24 00:50:44;;;;;;;62.25;33.30;;;256.70;819.20;;;;;;5096798;28;20020;-63
2022/03/24 00:53:11;;;;;;;72.97;38.58;;;256.70;819.20;;;;;;5096749;28;20021;-64
2022/03/24 00:55:39;;;;;;;81.55;40.53;;;256.70;819.20;;;;;;5096650;28;20040;-63
2022/03/24 00:58:05;;;;;;;82.10;44.22;;;256.70;819.20;;;;;;5096738;28;20025;-63
2022/03/24 01:00:31;;;;;;;84.20;43.10;;;256.60;819.20;;;;;;5096365;28;20489;-63
2022/03/24 01:02:58;;;;;;;77.55;42.38;;;256.60;819.20;;;;;;5096792;28;20098;-63
2022/03/24 01:05:27;;;;;;;71.25;40.15;;;256.60;844.80;;;;;;5096643;28;20032;-64
2022/03/24 01:07:54;;;;;;;62.65;35.25;;;256.50;844.80;;;;;;5096343;28;20531;-62
2022/03/24 01:10:20;;;;;;;59.65;31.83;;;256.50;819.20;;;;;;5096311;28;20469;-63
2022/03/24 01:12:47;;;;;;;60.30;30.58;;;256.50;819.20;;;;;;5096428;28;20020;-63
2022/03/24 01:15:18;;;;;;;48.67;25.98;;;256.50;819.20;;;;;;5096326;28;20031;-62
2022/03/24 01:17:44;;;;;;;52.95;27.10;;;256.40;844.80;;;;;;5096360;28;20028;-61
2022/03/24 01:20:12;;;;;;;47.92;25.80;;;256.30;844.80;;;;;;5096073;28;20106;-62
2022/03/24 01:22:40;;;;;;;52.50;27.13;;;256.30;844.80;;;;;;5095924;28;20031;-63
2022/03/24 01:25:07;;;;;;;44.92;24.65;;;256.30;844.80;;;;;;5096102;28;20024;-63
2022/03/24 01:27:34;;;;;;;50.65;26.33;;;256.30;844.80;;;;;;5096224;28;20073;-64
2022/03/24 01:30:00;;;;;;;47.65;27.20;;;256.30;844.80;;;;;;5096097;28;20484;-62
2022/03/24 01:32:26;;;;;;;56.90;30.48;;;256.20;844.80;;;;;;5096098;28;20031;-61
2022/03/24 01:34:53;;;;;;;62.53;31.35;;;256.20;844.80;;;;;;5095789;28;20085;-64
2022/03/24 01:37:19;;;;;;;69.85;36.90;;;256.20;844.80;;;;;;5095901;28;20095;-62
2022/03/24 01:39:45;;;;;;;67.47;36.60;;;256.20;844.80;;;;;;5095522;28;20539;-63
2022/03/24 01:42:11;;;;;;;69.18;38.45;;;256.20;844.80;;;;;;5095774;28;20024;-64
2022/03/24 01:44:38;;;;;;;70.05;35.42;;;256.30;844.80;;;;;;5095860;28;20099;-64
2022/03/24 01:47:06;;;;;;;66.35;35.05;;;256.30;844.80;;;;;;5096364;28;20416;-61
2022/03/24 01:49:37;;;;;;;80.53;38.20;;;256.30;844.80;;;;;;5095836;28;20024;-64
2022/03/24 01:52:07;;;;;;;77.10;39.95;;;256.30;844.80;;;;;;5095657;28;20425;-63
2022/03/24 01:54:35;;;;;;;76.93;39.38;;;256.30;844.80;;;;;;5095519;28;20060;-61
2022/03/24 01:57:03;;;;;;;79.38;39.95;;;256.20;844.80;;;;;;5095658;28;20027;-61
2022/03/24 01:59:29;;;;;;;83.10;43.08;;;256.10;844.80;;;;;;5094943;28;20016;-63
2022/03/24 02:01:55;;;;;;;82.57;40.13;;;256.10;844.80;;;;;;5094920;28;20076;-61
2022/03/24 02:04:21;;;;;;;84.88;34.25;;;256.10;844.80;;;;;;5095534;28;20020;-64
2022/03/24 02:06:48;;;;;;;60.90;31.17;;;231.30;870.40;;;;;;5095478;28;20024;-61
2022/03/24 02:09:15;;;;;;;49.08;25.08;;;256.00;870.40;;;;;;5095389;28;20028;-62
2022/03/24 02:11:41;;;;;;;62.45;27.70;;;256.00;844.80;;;;;;5095225;28;20016;-63
2022/03/24 02:14:08;;;;;;;63.90;33.55;;;256.00;870.40;;;;;;5095297;28;20110;-63
2022/03/24 02:16:38;;;;;;;60.65;31.98;;;256.00;844.80;;;;;;5077054;28;20150;-63
2022/03/24 02:19:21;;;;;;;73.38;32.25;;;256.00;844.80;;;;;;5095290;28;20043;-61
2022/03/24 02:21:48;;;;;;;78.28;35.05;;;231.30;870.40;;;;;;5095291;28;20039;-64
2022/03/24 02:24:16;;;;;;;64.07;34.15;;;231.30;921.60;;;;;;5095136;28;20072;-61
2022/03/24 02:26:44;;;;;;;59.95;30.45;;;256.00;896.00;;;;;;5095022;28;20042;-61
2022/03/24 02:29:11;;;;;;;60.50;30.23;;;256.00;896.00;;;;;;5095305;28;20096;-61
2022/03/24 02:31:40;;;;;;;51.58;30.98;;;231.30;870.40;;;;;;5095026;28;20028;-61
2022/03/24 02:36:53;;;;;;;51.75;26.02;;;231.20;870.40;;;;;;5095230;28;20035;-61
2022/03/24 02:39:19;;;;;;;43.75;25.23;;;231.20;870.40;;;;;;5094904;28;20020;-61
2022/03/24 02:41:53;;;;;;;50.60;27.63;;;231.30;870.40;;;;;;5094813;28;20030;-61
2022/03/24 02:44:23;;;;;;;51.30;27.08;;;231.30;870.40;;;;;;5094788;28;20027;-61
2022/03/24 02:46:51;;;;;;;41.03;24.65;;;256.00;870.40;;;;;;5094532;28;20097;-61
2022/03/24 02:49:18;;;;;;;44.45;24.42;;;256.00;870.40;;;;;;5094223;28;20017;-60
2022/03/24 02:51:44;;;;;;;44.80;25.23;;;256.00;870.40;;;;;;5094198;28;20511;-61
2022/03/24 02:54:11;;;;;;;43.25;25.17;;;256.00;870.40;;;;;;5094332;28;20035;-61
2022/03/24 02:56:38;;;;;;;53.00;26.27;;;256.00;870.40;;;;;;5094566;28;20089;-61
2022/03/24 02:59:05;;;;;;;39.83;22.05;;;256.00;870.40;;;;;;5094511;28;20016;-61
2022/03/24 03:01:33;;;;;;;44.42;19.85;;;231.30;870.40;;;;;;5094295;28;20119;-61
2022/03/24 03:04:00;;;;;;;38.08;19.60;;;231.30;870.40;;;;;;5094503;28;20032;-61
2022/03/24 03:06:26;;;;;;;34.47;17.17;;;231.20;870.40;;;;;;5094142;28;20016;-60
2022/03/24 03:08:52;;;;;;;31.00;17.02;;;231.20;870.40;;;;;;5094433;28;20074;-61
2022/03/24 03:11:22;;;;;;;30.15;16.88;;;231.20;870.40;;;;;;5094144;28;20016;-60
2022/03/24 03:13:48;;;;;;;35.70;16.38;;;231.10;870.40;;;;;;5094231;28;20027;-61
2022/03/24 03:16:14;;;;;;;34.28;15.73;;;231.10;870.40;;;;;;5093994;28;20119;-61
2022/03/24 03:18:44;;;;;;;34.42;15.68;;;231.10;870.40;;;;;;5094060;28;20468;-61
2022/03/24 03:21:09;;;;;;;35.53;17.60;;;231.10;870.40;;;;;;5094279;28;20420;-61
2022/03/24 03:23:39;;;;;;;40.88;19.52;;;231.00;870.40;;;;;;5094278;28;20031;-60
2022/03/24 03:26:06;;;;;;;39.90;18.88;;;231.10;870.40;;;;;;5094123;28;20024;-60
2022/03/24 03:28:32;;;;;;;47.60;19.85;;;231.10;870.40;;;;;;5094174;28;20105;-60
2022/03/24 03:30:58;;;;;;;39.47;20.40;;;231.20;870.40;;;;;;5094089;28;20440;-60
2022/03/24 03:33:24;;;;;;;36.83;20.60;;;231.10;870.40;;;;;;5094297;28;20074;-60
2022/03/24 03:35:51;;;;;;;41.92;21.73;;;231.10;870.40;;;;;;5093868;28;20067;-60
2022/03/24 03:38:18;;;;;;;39.47;20.88;;;231.00;870.40;;;;;;5094120;28;20042;-60
2022/03/24 03:40:45;;;;;;;49.00;21.33;;;230.90;870.40;;;;;;5093870;28;20028;-60
2022/03/24 03:43:11;;;;;;;42.70;22.50;;;230.80;896.00;;;;;;5093945;28;20024;-61
2022/03/24 03:45:38;;;;;;;47.63;22.08;;;230.80;896.00;;;;;;5094030;28;20111;-60
2022/03/24 03:48:05;;;;;;;49.90;22.30;;;230.90;896.00;;;;;;5093727;28;20024;-60
2022/03/24 03:50:32;;;;;;;43.22;22.40;;;230.90;896.00;;;;;;5093811;28;20024;-61
2022/03/24 03:52:57;;;;;;;53.78;23.67;;;231.00;896.00;;;;;;5093630;28;20409;-59
2022/03/24 03:55:23;;;;;;;50.50;24.83;;;230.90;896.00;;;;;;5093638;28;20039;-61
2022/03/24 03:57:49;;;;;;;48.80;26.25;;;230.70;896.00;;;;;;5093666;28;20024;-60
2022/03/24 04:03:03;;;;;;;58.78;31.65;;;230.80;896.00;;;;;;5096007;28;20024;-60
2022/03/24 04:05:30;;;;;;;65.55;36.40;;;230.90;896.00;;;;;;5098234;28;20047;-59
2022/03/24 04:07:56;;;;;;;61.92;36.50;;;230.90;896.00;;;;;;5097720;28;20462;-61
2022/03/24 04:10:22;;;;;;;57.08;34.65;;;230.90;896.00;;;;;;5097603;28;20035;-61
2022/03/24 04:12:50;;;;;;;69.35;38.67;;;230.80;896.00;;;;;;5097592;28;20024;-60
2022/03/24 04:15:16;;;;;;;72.00;38.83;;;230.70;896.00;;;;;;5097716;28;20047;-59
2022/03/24 04:17:42;;;;;;;65.28;36.92;;;230.60;921.60;;;;;;5097748;28;20103;-60
2022/03/24 04:20:10;;;;;;;63.63;31.92;;;230.60;921.60;;;;;;5097596;28;20517;-61
2022/03/24 04:22:36;;;;;;;49.15;28.75;;;230.60;921.60;;;;;;5097549;28;20076;-60
2022/03/24 04:25:05;;;;;;;52.63;27.58;;;230.50;921.60;;;;;;5097482;28;20063;-60
2022/03/24 04:27:31;;;;;;;57.83;26.35;;;230.60;921.60;;;;;;5097490;28;20036;-60
2022/03/24 04:29:56;;;;;;;53.28;25.02;;;230.50;921.60;;;;;;5097337;28;20042;-61
2022/03/24 04:32:22;;;;;;;47.65;25.92;;;230.50;921.60;;;;;;5097415;28;20062;-61
2022/03/24 04:34:48;;;;;;;50.80;26.70;;;230.50;921.60;;;;;;5097175;28;20032;-61
2022/03/24 04:37:15;;;;;;;56.70;27.35;;;230.50;921.60;;;;;;5097147;28;20028;-61
2022/03/24 04:39:40;;;;;;;58.88;27.67;;;230.50;921.60;;;;;;5097312;28;20446;-61
2022/03/24 04:42:08;;;;;;;57.78;29.33;;;230.50;921.60;;;;;;5097084;28;20067;-61
2022/03/24 04:44:34;;;;;;;55.75;28.27;;;230.50;921.60;;;;;;5097140;28;20370;-60
2022/03/24 04:47:00;;;;;;;52.75;27.95;;;230.40;921.60;;;;;;5097099;28;20031;-61
2022/03/24 04:49:26;;;;;;;52.30;27.77;;;230.50;921.60;;;;;;5097066;28;20408;-61
2022/03/24 04:51:53;;;;;;;52.92;27.90;;;230.40;921.60;;;;;;5096776;28;20028;-59
2022/03/24 04:54:19;;;;;;;57.65;27.65;;;230.40;921.60;;;;;;5096761;28;20028;-60
2022/03/24 04:56:45;;;;;;;72.22;35.08;;;230.40;921.60;;;;;;5096954;28;20024;-60
2022/03/24 04:59:12;;;;;;;70.68;36.67;;;230.40;947.20;;;;;;5096872;28;20071;-59
2022/03/24 05:01:38;;;;;;;90.80;39.92;;;230.40;947.20;;;;;;5096671;28;20048;-59
2022/03/24 05:04:07;;;;;;;89.82;41.85;;;230.40;947.20;;;;;;5096764;28;20016;-61
2022/03/24 05:06:34;;;;;;;72.55;38.00;;;205.70;947.20;;;;;;5096715;28;20370;-63
2022/03/24 05:08:59;;;;;;;73.38;34.25;;;205.60;972.80;;;;;;5096264;28;20031;-61
2022/03/24 05:11:25;;;;;;;68.10;34.00;;;205.60;947.20;;;;;;5096361;28;20115;-63
2022/03/24 05:13:51;;;;;;;65.95;31.38;;;205.60;947.20;;;;;;5095717;28;20102;-61
2022/03/24 05:16:18;;;;;;;65.38;32.33;;;205.60;947.20;;;;;;5096321;28;20040;-61
2022/03/24 05:18:44;;;;;;;61.40;29.33;;;205.60;947.20;;;;;;5096096;28;20047;-60
2022/03/24 05:21:10;;;;;;;64.97;31.15;;;205.60;972.80;;;;;;5077711;28;20123;-63
2022/03/24 05:23:36;;;;;;;60.75;30.42;;;205.60;972.80;;;;;;5096038;28;20153;-63
2022/03/24 05:26:01;;;;;;;64.20;32.03;;;205.60;972.80;;;;;;5096119;28;20028;-60
2022/03/24 05:28:27;;;;;;;55.75;29.73;;;205.50;972.80;;;;;;5095525;28;20021;-62
2022/03/24 05:30:53;;;;;;;59.60;29.30;;;205.50;972.80;;;;;;5095719;28;20023;-62
2022/03/24 05:33:19;;;;;;;68.38;28.80;;;205.60;972.80;;;;;;5095766;28;20382;-60
2022/03/24 05:35:49;;;;;;;57.95;29.40;;;205.60;972.80;;;;;;5096304;28;20085;-60
2022/03/24 05:38:15;;;;;;;65.18;31.90;;;205.60;972.80;;;;;;5095996;28;20028;-61
2022/03/24 05:40:41;;;;;;;63.05;33.13;;;205.60;972.80;;;;;;5096129;28;20027;-60
2022/03/24 05:43:06;;;;;;;63.03;31.67;;;205.60;972.80;;;;;;5095647;28;20028;-62
2022/03/24 05:45:32;;;;;;;74.15;29.33;;;205.60;972.80;;;;;;5095861;28;20028;-61
2022/03/24 05:47:58;;;;;;;59.83;29.63;;;205.70;972.80;;;;;;5096140;28;20025;-60
2022/03/24 05:50:28;;;;;;;67.22;29.77;;;205.70;998.40;;;;;;5095595;28;20070;-60
2022/03/24 05:52:53;;;;;;;55.75;27.30;;;205.70;998.40;;;;;;5094783;28;20390;-62
2022/03/24 05:55:19;;;;;;;58.88;27.05;;;205.70;998.40;;;;;;5095130;28;20047;-62
2022/03/24 05:57:45;;;;;;;56.42;28.85;;;230.40;972.80;;;;;;5095305;28;20027;-61
2022/03/24 06:00:11;;;;;;;62.28;27.83;;;230.40;972.80;;;;;;5094588;28;20056;-63
2022/03/24 06:02:37;;;;;;;65.57;28.85;;;230.40;998.40;;;;;;5094920;28;20115;-61
2022/03/24 06:05:05;;;;;;;67.78;29.63;;;230.50;998.40;;;;;;5094988;28;20031;-60
2022/03/24 06:07:33;;;;;;;58.20;29.05;;;230.60;1024.00;;;;;;5095529;28;20024;-61
2022/03/24 06:09:59;;;;;;;64.38;30.50;;;230.60;1024.00;;;;;;5095542;28;20106;-61
2022/03/24 06:12:25;;;;;;;57.75;30.98;;;230.70;998.40;;;;;;5095413;28;20470;-63
2022/03/24 06:14:51;;;;;;;55.97;28.48;;;230.70;1024.00;;;;;;5095155;28;20390;-61
2022/03/24 06:17:20;;;;;;;63.75;29.92;;;230.80;1024.00;;;;;;5095358;28;20025;-63
2022/03/24 06:19:47;;;;;;;53.90;26.77;;;230.90;1024.00;;;;;;5094890;28;20105;-61
2022/03/24 06:22:14;;;;;;;55.92;26.23;;;230.90;1024.00;;;;;;5095321;28;20032;-61
2022/03/24 06:24:39;;;;;;;54.38;27.20;;;231.00;1024.00;;;;;;5094249;28;20063;-61
2022/03/24 06:27:05;;;;;;;47.92;24.83;;;231.20;1100.80;;;;;;5094954;28;20431;-62
2022/03/24 06:29:31;;;;;;;47.47;24.15;;;231.30;1049.60;;;;;;5094906;28;20024;-59
2022/03/24 06:31:57;;;;;;;52.95;22.83;;;256.00;1024.00;;;;;;5095162;28;20024;-62
2022/03/24 06:34:23;;;;;;;41.63;20.25;;;256.10;1024.00;;;;;;5094935;28;20050;-59
2022/03/24 06:36:50;;;;;;;37.67;18.90;;;256.20;998.40;;;;;;5095063;28;20450;-62
2022/03/24 06:39:16;;;;;;;40.33;20.15;;;256.30;998.40;;;;;;5093849;28;20544;-62
2022/03/24 06:41:42;;;;;;;32.40;18.88;;;256.60;998.40;;;;;;5095240;28;20048;-61
2022/03/24 06:44:09;;;;;;;38.45;20.20;;;256.60;998.40;;;;;;5094918;28;20024;-60
2022/03/24 06:46:35;;;;;;;37.38;18.95;;;256.80;998.40;;;;;;5094818;28;20502;-62
2022/03/24 06:49:01;;;;;;;35.92;19.13;;;281.60;998.40;;;;;;5094768;28;20419;-62
2022/03/24 06:51:27;;;;;;;35.03;19.58;;;281.70;998.40;;;;;;5094881;28;20016;-60
2022/03/24 06:53:52;;;;;;;36.50;19.98;;;281.90;998.40;;;;;;5094668;28;20098;-59
2022/03/24 06:56:18;;;;;;;37.53;18.45;;;282.10;998.40;;;;;;5094326;28;20080;-62
2022/03/24 06:58:44;;;;;;;42.03;20.52;;;282.30;972.80;;;;;;5094515;28;20022;-62
2022/03/24 07:01:10;;;;;;;37.70;19.75;;;282.40;972.80;;;;;;5094647;28;20063;-62
2022/03/24 07:03:37;;;;;;;38.13;20.85;;;307.20;998.40;;;;;;5094413;28;20115;-62
2022/03/24 07:06:04;;;;;;;42.05;19.50;;;307.30;998.40;;;;;;5094461;28;20519;-62
2022/03/24 07:08:30;;;;;;;40.75;20.13;;;307.50;998.40;;;;;;5094447;28;20066;-60
2022/03/24 07:10:56;;;;;;;46.10;20.30;;;307.60;972.80;;;;;;5094317;28;20024;-63
2022/03/24 07:13:23;;;;;;;41.85;19.30;;;307.90;972.80;;;;;;5094419;28;20024;-60
2022/03/24 07:15:49;;;;;;;33.63;19.52;;;308.10;947.20;;;;;;5094153;28;20032;-60
2022/03/24 07:18:15;;;;;;;38.78;20.02;;;332.80;972.80;;;;;;5094306;28;20030;-60
2022/03/24 07:20:41;;;;;;;40.38;19.85;;;333.00;972.80;;;;;;5094289;28;20082;-64
2022/03/24 07:23:08;;;;;;;34.88;18.45;;;333.10;972.80;;;;;;5094145;28;20024;-61
2022/03/24 07:25:36;;;;;;;42.10;19.20;;;333.40;947.20;;;;;;5093650;28;20028;-62
2022/03/24 07:28:02;;;;;;;35.60;18.30;;;333.50;947.20;;;;;;5094200;28;20043;-63
2022/03/24 07:30:28;;;;;;;43.20;19.05;;;333.60;921.60;;;;;;5094052;28;20099;-63
2022/03/24 07:32:55;;;;;;;35.95;18.55;;;358.40;921.60;;;;;;5093848;28;20050;-62
2022/03/24 07:35:24;;;;;;;27.42;16.42;;;358.40;896.00;;;;;;5093906;28;20032;-60
2022/03/24 07:37:50;;;;;;;33.53;16.88;;;358.60;896.00;;;;;;5093844;28;20028;-60
2022/03/24 07:40:18;;;;;;;26.60;15.82;;;358.80;896.00;;;;;;5093789;28;20032;-60
2022/03/24 07:42:45;;;;;;;33.00;15.77;;;358.90;896.00;;;;;;5094041;28;20028;-60
2022/03/24 07:45:12;;;;;;;33.28;16.35;;;359.10;870.40;;;;;;5093992;28;20031;-61
2022/03/24 07:48:09;;;;;;;31.02;17.10;;;359.20;870.40;;;;;;5093938;28;20028;-60
2022/03/24 07:50:41;;;;;;;24.83;15.38;;;384.00;844.80;;;;;;5093401;28;20026;-60
2022/03/24 07:53:17;;;;;;;38.80;15.18;;;384.00;844.80;;;;;;5094571;28;20039;-60
2022/03/24 07:55:44;;;;;;;30.13;14.15;;;384.20;844.80;;;;;;5093421;28;20036;-62
2022/03/24 07:58:11;;;;;;;24.80;13.30;;;384.40;819.20;;;;;;5093786;28;20024;-61
2022/03/24 08:00:37;;;;;;;27.05;13.10;;;384.60;793.60;;;;;;5093652;28;20055;-59
2022/03/24 08:03:07;;;;;;;24.55;12.95;;;384.80;793.60;;;;;;5093564;28;20070;-60
2022/03/24 08:05:33;;;;;;;24.55;13.13;;;409.60;819.20;;;;;;5093531;28;20069;-62
2022/03/24 08:07:58;;;;;;;25.52;13.57;;;409.80;793.60;;;;;;5093953;28;20016;-60
2022/03/24 08:10:24;;;;;;;27.00;12.80;;;410.00;793.60;;;;;;5093610;28;20028;-60
2022/03/24 08:12:50;;;;;;;25.30;12.48;;;410.20;793.60;;;;;;5093805;28;20489;-62
2022/03/24 08:15:16;;;;;;;25.30;12.32;;;410.40;768.00;;;;;;5093542;28;20036;-62
2022/03/24 08:17:41;;;;;;;34.58;12.52;;;435.20;742.40;;;;;;5093224;28;20027;-63
2022/03/24 08:20:08;;;;;;;28.15;12.13;;;435.40;742.40;;;;;;5093677;28;20024;-63
2022/03/24 08:22:33;;;;;;;23.63;11.48;;;435.60;716.80;;;;;;5093176;28;20489;-62
2022/03/24 08:24:59;;;;;;;24.40;12.23;;;435.70;716.80;;;;;;5093524;28;20043;-63
2022/03/24 08:27:25;;;;;;;32.95;12.05;;;435.80;691.20;;;;;;5093638;28;20017;-63
2022/03/24 08:29:51;;;;;;;24.33;10.25;;;436.00;691.20;;;;;;5093428;28;20028;-62
2022/03/24 08:32:17;;;;;;;24.08;10.00;;;436.10;691.20;;;;;;5093323;28;20126;-63
2022/03/24 08:34:42;;;;;;;17.05;9.27;;;460.90;716.80;;;;;;5093159;28;20112;-60
2022/03/24 08:37:08;;;;;;;32.50;9.90;;;461.00;691.20;;;;;;5093570;28;20086;-60
2022/03/24 08:39:34;;;;;;;27.48;9.20;;;461.20;691.20;;;;;;5093306;28;20099;-60
2022/03/24 08:42:00;;;;;;;38.28;9.48;;;461.30;665.60;;;;;;5093058;28;20031;-62
2022/03/24 08:44:25;;;;;;;32.55;10.15;;;461.40;665.60;;;;;;5093292;28;20103;-62
2022/03/24 08:46:51;;;;;;;55.80;23.27;;;461.50;640.00;;;;;;5074794;28;20535;-60
2022/03/24 08:49:18;;;;;;;22.60;9.93;;;461.60;640.00;;;;;;5095447;28;20023;-63
2022/03/24 08:51:47;;;;;;;17.55;9.93;;;486.40;640.00;;;;;;5097000;28;20024;-63
2022/03/24 08:54:13;;;;;;;18.58;8.73;;;486.50;614.40;;;;;;5097164;28;20078;-60
2022/03/24 08:56:38;;;;;;;16.73;8.77;;;486.60;588.80;;;;;;5096936;28;20032;-61
2022/03/24 08:59:07;;;;;;;19.27;9.18;;;486.60;588.80;;;;;;5096955;28;20055;-62
2022/03/24 09:01:33;;;;;;;12.25;8.18;;;486.70;588.80;;;;;;5096432;28;20133;-62
2022/03/24 09:03:58;;;;;;;13.60;7.05;;;486.80;563.20;;;;;;5096695;28;20024;-60
2022/03/24 09:06:24;;;;;;;19.85;8.15;;;486.80;537.60;;;;;;5096142;28;20027;-63
2022/03/24 09:08:50;;;;;;;16.50;7.78;;;486.80;537.60;;;;;;5096859;28;20486;-63
2022/03/24 09:11:16;;;;;;;26.30;7.63;;;486.90;537.60;;;;;;5096684;28;20032;-60
2022/03/24 09:13:42;;;;;;;17.45;7.93;;;487.00;537.60;;;;;;5096547;28;20036;-60
2022/03/24 09:16:07;;;;;;;18.10;7.53;;;487.10;537.60;;;;;;5096649;28;20174;-60
2022/03/24 09:18:36;;;;;;;14.18;7.97;;;487.20;537.60;;;;;;5096598;28;20046;-62
2022/03/24 09:21:02;;;;;;;17.67;8.75;;;487.20;537.60;;;;;;5096576;28;20028;-60
2022/03/24 09:23:28;;;;;;;17.45;9.35;;;512.00;537.60;;;;;;5078256;28;20024;-63
2022/03/24 09:25:55;;;;;;;15.02;8.52;;;512.00;512.00;;;;;;5096376;28;20051;-63
2022/03/24 09:28:22;;;;;;;15.50;8.85;;;512.10;512.00;;;;;;5096510;28;20043;-61
2022/03/24 09:30:53;;;;;;;15.07;9.00;;;512.20;486.40;;;;;;5096269;28;20028;-62
2022/03/24 09:33:19;;;;;;;15.73;9.05;;;512.20;512.00;;;;;;5096147;28;20081;-60
2022/03/24 09:35:45;;;;;;;16.48;8.45;;;512.30;512.00;;;;;;5096316;28;20036;-63
2022/03/24 09:38:29;;;;;;;19.55;8.65;;;512.40;512.00;;;;;;5096102;28;20112;-63
2022/03/24 09:40:54;;;;;;;14.88;8.80;;;512.50;512.00;;;;;;5095970;28;20024;-60
2022/03/24 09:43:21;;;;;;;15.32;9.10;;;512.50;512.00;;;;;;5096113;28;20031;-59
2022/03/24 09:45:48;;;;;;;17.42;8.55;;;512.60;486.40;;;;;;5096159;28;20390;-60
2022/03/24 09:48:15;;;;;;;12.15;7.90;;;512.70;512.00;;;;;;5095984;28;20024;-63
2022/03/24 09:50:46;;;;;;;15.60;8.75;;;512.70;512.00;;;;;;5096040;28;20042;-61
2022/03/24 09:53:13;;;;;;;20.73;9.82;;;512.70;512.00;;;;;;5095940;28;20032;-62
2022/03/24 09:55:40;;;;;;;17.00;8.82;;;512.80;512.00;;;;;;5095677;28;20040;-60
2022/03/24 09:58:09;;;;;;;24.55;8.88;;;512.90;512.00;;;;;;5095712;28;20455;-60
2022/03/24 10:00:35;;;;;;;17.65;8.10;;;512.90;486.40;;;;;;5095300;28;20036;-61
2022/03/24 10:03:11;;;;;;;17.23;7.28;;;537.60;512.00;;;;;;5095457;28;20481;-60
2022/03/24 10:06:04;;;;;;;14.98;7.95;;;537.60;512.00;;;;;;5095656;28;20063;-60
2022/03/24 10:08:30;;;;;;;14.63;7.47;;;537.70;512.00;;;;;;5095546;28;20039;-60
2022/03/24 10:10:57;;;;;;;13.95;7.95;;;537.70;512.00;;;;;;5095360;28;20031;-60
2022/03/24 10:13:44;;;;;;;10.60;7.35;;;537.80;512.00;;;;;;5094970;28;20027;-59
2022/03/24 10:16:12;;;;;;;14.63;8.10;;;538.00;512.00;;;;;;5013428;28;20450;-60
2022/03/24 10:18:57;;;;;;;19.17;9.27;;;537.90;512.00;;;;;;5013312;28;20030;-62
2022/03/24 10:21:23;;;;;;;22.98;9.30;;;538.00;512.00;;;;;;5013323;28;20041;-63
2022/03/24 10:23:49;;;;;;;27.70;9.75;;;537.90;512.00;;;;;;5013624;28;20025;-62
2022/03/24 10:26:15;;;;;;;16.27;7.57;;;537.90;512.00;;;;;;5013017;28;20361;-63
2022/03/24 10:28:57;;;;;;;12.27;8.45;;;537.90;486.40;;;;;;5013269;28;20026;-60
2022/03/24 10:31:33;;;;;;;10.30;7.65;;;538.10;486.40;;;;;;5013208;28;20029;-60
2022/03/24 10:33:59;;;;;;;12.60;7.65;;;538.10;486.40;;;;;;5013092;28;20038;-63
2022/03/24 10:36:26;;;;;;;14.63;8.32;;;538.10;486.40;;;;;;5012899;28;20045;-60
2022/03/24 10:38:54;;;;;;;14.88;8.88;;;538.10;486.40;;;;;;5012939;28;20036;-59
2022/03/24 10:41:29;;;;;;;15.23;8.82;;;538.10;486.40;;;;;;5012766;28;20041;-63
2022/03/24 10:44:00;;;;;;;13.50;7.30;;;538.10;486.40;;;;;;5013268;28;20026;-63
2022/03/24 10:46:30;;;;;;;18.90;9.00;;;538.20;486.40;;;;;;5012945;28;20516;-63
2022/03/24 10:48:57;;;;;;;14.90;7.97;;;538.20;486.40;;;;;;5012734;28;20108;-63
2022/03/24 10:51:22;;;;;;;12.27;7.57;;;538.30;486.40;;;;;;4995937;28;20030;-60
2022/03/24 10:53:49;;;;;;;39.83;9.93;;;538.20;486.40;;;;;;5073494;28;20424;-60
2022/03/24 10:56:31;;;;;;;20.92;7.68;;;538.30;486.40;;;;;;5094636;28;20124;-60
2022/03/24 10:59:00;;;;;;;14.02;6.22;;;538.30;486.40;;;;;;5094637;28;20359;-61
2022/03/24 11:01:27;;;;;;;16.17;7.07;;;538.40;460.80;;;;;;5094375;28;20056;-60
2022/03/24 11:03:53;;;;;;;16.13;6.80;;;538.50;486.40;;;;;;5094652;28;20021;-60
2022/03/24 11:06:22;;;;;;;10.13;7.05;;;538.50;460.80;;;;;;5095112;28;20020;-60
2022/03/24 11:09:00;;;;;;;13.68;7.10;;;538.50;460.80;;;;;;5094748;28;20016;-60
2022/03/24 11:11:29;;;;;;;12.65;7.45;;;538.50;460.80;;;;;;5093866;28;20054;-60
2022/03/24 11:14:04;;;;;;;21.77;8.23;;;538.50;460.80;;;;;;5094248;28;20028;-60
2022/03/24 11:16:33;;;;;;;16.05;6.80;;;538.50;460.80;;;;;;5094424;28;20441;-60
2022/03/24 11:19:19;;;;;;;15.32;7.35;;;563.20;486.40;;;;;;5094294;28;20031;-60
2022/03/24 11:21:57;;;;;;;14.32;7.53;;;563.20;486.40;;;;;;5093940;28;20036;-60
2022/03/24 11:24:23;;;;;;;12.13;6.80;;;563.20;486.40;;;;;;5094119;28;20405;-62
2022/03/24 11:26:49;;;;;;;16.83;7.50;;;563.20;512.00;;;;;;5094278;28;20020;-60
2022/03/24 11:29:15;;;;;;;15.15;8.25;;;563.30;486.40;;;;;;5094126;28;20530;-60
2022/03/24 11:31:44;;;;;;;17.50;7.78;;;563.30;486.40;;;;;;5094154;28;20370;-60
2022/03/24 11:34:10;;;;;;;12.68;7.07;;;563.40;460.80;;;;;;5075962;28;20036;-60
2022/03/24 11:36:36;;;;;;;14.80;6.78;;;563.40;460.80;;;;;;5094000;28;20092;-60
2022/03/24 11:39:08;;;;;;;13.60;7.30;;;563.50;460.80;;;;;;5094043;28;20024;-60
2022/03/24 11:41:48;;;;;;;12.80;7.05;;;563.50;460.80;;;;;;5094128;28;20035;-60
2022/03/24 11:44:32;;;;;;;13.93;7.07;;;563.50;460.80;;;;;;5093752;28;20020;-61
2022/03/24 11:47:00;;;;;;;11.80;6.53;;;563.60;460.80;;;;;;5094005;28;20370;-60
2022/03/24 11:49:28;;;;;;;17.95;7.97;;;563.60;460.80;;;;;;5093489;28;20043;-60
2022/03/24 11:51:56;;;;;;;15.50;8.25;;;563.60;460.80;;;;;;5094040;28;20442;-63
2022/03/24 11:54:31;;;;;;;16.70;7.35;;;563.70;460.80;;;;;;5093774;28;20036;-59
2022/03/24 11:57:35;;;;;;;12.48;7.30;;;563.60;435.20;;;;;;5093704;28;20028;-60
2022/03/24 12:00:13;;;;;;;13.07;6.82;;;563.60;460.80;;;;;;5011664;28;20574;-61
2022/03/24 12:02:49;;;;;;;19.05;5.82;;;563.70;460.80;;;;;;5011729;28;20045;-61
2022/03/24 12:05:16;;;;;;;14.68;6.15;;;563.70;435.20;;;;;;4995828;28;20034;-60
2022/03/24 12:07:42;;;;;;;15.20;5.57;;;563.70;460.80;;;;;;5012457;28;20364;-62
2022/03/24 12:10:13;;;;;;;13.35;6.28;;;563.80;460.80;;;;;;5011483;28;20037;-62
2022/03/24 12:13:00;;;;;;;11.25;5.45;;;563.80;460.80;;;;;;5011808;28;20025;-60
2022/03/24 12:15:25;;;;;;;10.93;6.25;;;563.80;435.20;;;;;;5011858;28;20148;-60
2022/03/24 12:18:18;;;;;;;10.20;5.90;;;563.80;460.80;;;;;;5011911;28;20116;-60
2022/03/24 12:20:46;;;;;;;12.57;6.13;;;563.90;460.80;;;;;;5010216;28;20041;-60